Time;durP1;ratioP1;P1;durP2;ratioP2;P2;SDS_P1;SDS_P2;PMS_P1;PMS_P2;Temp;Humidity;BMP_temperature;BMP_pressure;BME280_temperature;BME280_humidity;BME280_pressure;Samples;Min_cycle;Max_cycle;Signal;HPM_P1;HPM_P2
2022/10/05 00:01:46;;;;;;;6.43;3.35;;;15.70;99.90;;;;;;4976173;28;20299;-87
2022/10/05 00:04:23;;;;;;;10.60;4.13;;;15.70;99.90;;;;;;4970538;28;20027;-87
2022/10/05 00:07:15;;;;;;;7.60;3.40;;;15.70;99.90;;;;;;4970547;28;20415;-87
2022/10/05 00:09:44;;;;;;;8.80;3.80;;;15.80;99.90;;;;;;4951931;28;20518;-87
2022/10/05 00:12:20;;;;;;;8.32;3.67;;;15.80;99.90;;;;;;4974386;28;20018;-86
2022/10/05 00:14:48;;;;;;;8.48;3.80;;;15.90;99.90;;;;;;4975358;28;20259;-87
2022/10/05 00:17:24;;;;;;;7.22;3.63;;;16.00;99.90;;;;;;4983745;28;20054;-87
2022/10/05 00:19:51;;;;;;;8.23;3.83;;;16.10;99.90;;;;;;4983991;28;20108;-87
2022/10/05 00:22:30;;;;;;;5.20;3.55;;;16.20;99.90;;;;;;4985093;28;20045;-87
2022/10/05 00:24:58;;;;;;;8.90;4.13;;;16.30;99.90;;;;;;4985080;28;20019;-87
2022/10/05 00:27:30;;;;;;;7.18;4.20;;;16.30;99.90;;;;;;4985041;28;20031;-87
2022/10/05 00:29:59;;;;;;;9.68;4.13;;;16.40;99.90;;;;;;4984721;28;20015;-87
2022/10/05 00:32:25;;;;;;;7.63;3.85;;;16.50;99.90;;;;;;4983782;28;20022;-87
2022/10/05 00:34:51;;;;;;;10.55;4.43;;;16.60;99.90;;;;;;4984905;28;20027;-87
2022/10/05 00:37:16;;;;;;;8.93;4.85;;;16.70;99.90;;;;;;4985066;28;20054;-87
2022/10/05 00:39:42;;;;;;;10.20;5.40;;;16.70;99.90;;;;;;4984493;28;20314;-88
2022/10/05 00:42:14;;;;;;;8.02;5.18;;;16.90;99.90;;;;;;4984271;28;20061;-88
2022/10/05 00:45:14;;;;;;;10.85;5.63;;;17.00;99.90;;;;;;4984466;28;20035;-87
2022/10/05 00:48:21;;;;;;;10.60;6.13;;;17.10;99.90;;;;;;4982052;28;20073;-87
2022/10/05 00:50:53;;;;;;;10.50;5.70;;;17.20;99.90;;;;;;4890426;29;20531;-87
2022/10/05 00:53:42;;;;;;;12.55;5.78;;;17.30;99.90;;;;;;4905850;29;20374;-87
2022/10/05 00:56:10;;;;;;;12.63;6.05;;;17.30;99.90;;;;;;4955097;28;20122;-88
2022/10/05 00:58:41;;;;;;;12.95;6.32;;;17.30;99.90;;;;;;4966585;28;20307;-87
2022/10/05 01:01:34;;;;;;;12.55;5.65;;;17.30;99.90;;;;;;4984466;28;20082;-88
2022/10/05 01:04:09;;;;;;;9.95;6.18;;;17.30;99.90;;;;;;4967090;28;20102;-87
2022/10/05 01:06:46;;;;;;;12.15;5.63;;;17.20;99.90;;;;;;4978196;28;20054;-88
2022/10/05 01:09:12;;;;;;;13.57;5.95;;;17.20;99.90;;;;;;4983173;28;20037;-88
2022/10/05 01:12:01;;;;;;;11.38;6.03;;;17.20;99.90;;;;;;4965961;28;20370;-88
2022/10/05 01:14:47;;;;;;;10.82;6.20;;;17.10;99.90;;;;;;4983416;28;20374;-88
2022/10/05 01:17:32;;;;;;;9.80;5.68;;;17.10;99.90;;;;;;4971308;28;20053;-88
2022/10/05 01:20:32;;;;;;;10.30;5.43;;;17.10;99.90;;;;;;4983128;28;20072;-88
2022/10/05 01:23:09;;;;;;;11.07;5.82;;;17.20;99.90;;;;;;4979318;28;20476;-88
2022/10/05 01:26:06;;;;;;;10.32;5.50;;;17.20;99.90;;;;;;4967867;28;20081;-88
2022/10/05 01:28:39;;;;;;;8.95;5.13;;;17.20;99.90;;;;;;4981820;28;20018;-88
2022/10/05 01:31:09;;;;;;;11.82;5.55;;;17.30;99.90;;;;;;4983821;28;20085;-88
2022/10/05 01:33:45;;;;;;;10.27;4.90;;;17.30;99.90;;;;;;4983809;28;20026;-88
2022/10/05 01:36:50;;;;;;;12.30;4.63;;;17.40;99.90;;;;;;4983791;28;20077;-90
2022/10/05 01:39:55;;;;;;;10.50;4.35;;;17.40;99.90;;;;;;4982712;28;20058;-88
2022/10/05 01:42:26;;;;;;;;;;;17.40;99.90;;;;;;4982883;28;20029;-88
2022/10/05 01:45:12;;;;;;;11.43;4.47;;;17.50;99.90;;;;;;4965157;28;20122;-87
2022/10/05 01:47:48;;;;;;;11.77;5.38;;;17.50;99.90;;;;;;4981671;28;20042;-88
2022/10/05 01:50:39;;;;;;;8.60;4.47;;;17.50;99.90;;;;;;4965093;28;20023;-88
2022/10/05 01:53:18;;;;;;;10.52;3.95;;;17.50;99.90;;;;;;4983096;28;20056;-87
2022/10/05 01:55:55;;;;;;;8.90;4.35;;;17.50;99.90;;;;;;4983429;28;20050;-87
2022/10/05 01:58:39;;;;;;;7.43;4.15;;;17.50;99.90;;;;;;4962071;29;20046;-88
2022/10/05 02:01:14;;;;;;;10.55;4.65;;;17.50;99.90;;;;;;4964376;28;20238;-90
2022/10/05 02:03:50;;;;;;;7.82;4.40;;;17.60;99.90;;;;;;4983497;28;20354;-89
2022/10/05 02:06:25;;;;;;;7.82;4.13;;;17.50;99.90;;;;;;4983305;28;20325;-88
2022/10/05 02:09:10;;;;;;;;;;;17.60;99.90;;;;;;4983197;28;20015;-88
2022/10/05 02:11:39;;;;;;;8.55;4.28;;;17.60;99.90;;;;;;4981819;28;20116;-88
2022/10/05 02:14:11;;;;;;;12.30;4.22;;;17.60;99.90;;;;;;4982894;28;20031;-88
2022/10/05 02:16:46;;;;;;;8.45;4.05;;;17.60;99.90;;;;;;4983085;28;20362;-87
2022/10/05 02:19:22;;;;;;;5.93;4.20;;;17.60;99.90;;;;;;4982957;28;20038;-88
2022/10/05 02:22:02;;;;;;;6.30;3.78;;;17.50;99.90;;;;;;4982311;28;20031;-88
2022/10/05 02:24:51;;;;;;;10.32;4.22;;;17.50;99.90;;;;;;4982438;28;20027;-88
2022/10/05 02:27:24;;;;;;;8.32;3.60;;;17.50;99.90;;;;;;4982682;28;20373;-87
2022/10/05 02:29:52;;;;;;;8.52;4.50;;;17.50;99.90;;;;;;4983022;28;20464;-87
2022/10/05 02:32:28;;;;;;;8.15;3.55;;;17.50;99.90;;;;;;4965710;28;20191;-88
2022/10/05 02:35:01;;;;;;;6.75;3.63;;;17.50;99.90;;;;;;4980429;28;20208;-88
2022/10/05 02:37:53;;;;;;;7.75;3.30;;;17.50;99.90;;;;;;4981352;28;20026;-92
2022/10/05 02:40:42;;;;;;;7.82;3.88;;;17.50;99.90;;;;;;4982500;28;20022;-88
2022/10/05 02:43:18;;;;;;;7.05;3.80;;;17.40;99.90;;;;;;4978299;28;20023;-88
2022/10/05 02:45:56;;;;;;;7.57;3.70;;;17.50;99.90;;;;;;4982017;28;20315;-88
2022/10/05 02:48:33;;;;;;;5.90;3.35;;;17.50;99.90;;;;;;4982160;28;20327;-88
2022/10/05 02:51:01;;;;;;;6.18;3.15;;;17.50;99.90;;;;;;4983382;28;20239;-88
2022/10/05 02:53:39;;;;;;;13.52;4.25;;;17.50;99.90;;;;;;4983349;28;20948;-88
2022/10/05 02:56:13;;;;;;;7.10;3.35;;;17.50;99.90;;;;;;4977471;28;20022;-88
2022/10/05 02:59:11;;;;;;;;;;;17.50;99.90;;;;;;4963653;28;20053;-88
2022/10/05 03:01:51;;;;;;;7.80;3.35;;;17.50;99.90;;;;;;4953455;28;19909;-89
2022/10/05 03:04:37;;;;;;;7.70;3.35;;;17.50;99.90;;;;;;4981919;28;20315;-88
2022/10/05 03:07:11;;;;;;;9.30;3.10;;;17.50;99.90;;;;;;4982408;28;20042;-88
2022/10/05 03:09:46;;;;;;;6.28;3.17;;;17.50;99.90;;;;;;4961646;29;20143;-88
2022/10/05 03:12:34;;;;;;;7.82;3.38;;;17.50;99.90;;;;;;4979759;28;20192;-88
2022/10/05 03:15:23;;;;;;;8.45;3.05;;;17.60;99.90;;;;;;4982465;28;20338;-87
2022/10/05 03:18:06;;;;;;;6.63;3.35;;;17.50;99.90;;;;;;4981816;28;20011;-89
2022/10/05 03:21:06;;;;;;;8.27;2.38;;;17.50;99.90;;;;;;4982048;28;20074;-88
2022/10/05 03:23:41;;;;;;;4.95;2.70;;;17.50;99.90;;;;;;4958091;28;20359;-87
2022/10/05 03:26:21;;;;;;;5.45;2.50;;;17.50;99.90;;;;;;4964998;28;20401;-88
2022/10/05 03:29:08;;;;;;;6.88;2.85;;;17.50;99.90;;;;;;4982325;28;20182;-88
2022/10/05 03:32:04;;;;;;;7.43;2.42;;;17.50;99.90;;;;;;4982383;28;20370;-87
2022/10/05 03:34:36;;;;;;;4.85;3.03;;;17.50;99.90;;;;;;4981973;28;20046;-88
2022/10/05 03:37:23;;;;;;;6.25;2.60;;;17.50;99.90;;;;;;4982288;28;20168;-88
2022/10/05 03:40:06;;;;;;;8.55;2.60;;;17.50;99.90;;;;;;4981306;28;20027;-87
2022/10/05 03:42:49;;;;;;;6.20;2.58;;;17.50;99.90;;;;;;4982017;28;20251;-88
2022/10/05 03:45:40;;;;;;;8.05;3.38;;;17.50;99.90;;;;;;4983983;28;20299;-88
2022/10/05 03:48:51;;;;;;;7.53;2.72;;;17.50;99.90;;;;;;4964965;28;20090;-88
2022/10/05 03:51:30;;;;;;;7.75;3.17;;;17.50;99.90;;;;;;4980586;28;20251;-87
2022/10/05 03:54:15;;;;;;;9.05;2.67;;;17.50;99.90;;;;;;4984570;28;20070;-87
2022/10/05 03:56:50;;;;;;;6.35;2.97;;;17.50;99.90;;;;;;4985053;28;20105;-88
2022/10/05 03:59:19;;;;;;;6.32;3.03;;;17.50;99.90;;;;;;4984897;28;20027;-87
2022/10/05 04:01:52;;;;;;;6.60;2.63;;;17.50;99.90;;;;;;4985316;28;20018;-87
2022/10/05 04:04:41;;;;;;;5.90;2.45;;;17.50;99.90;;;;;;4985226;28;20073;-88
2022/10/05 04:07:20;;;;;;;7.97;2.75;;;17.40;99.90;;;;;;4979172;28;20034;-89
2022/10/05 04:09:50;;;;;;;7.07;3.45;;;17.40;99.90;;;;;;4984947;28;20093;-87
2022/10/05 04:12:22;;;;;;;6.35;3.05;;;17.40;99.90;;;;;;4985953;28;20019;-88
2022/10/05 04:14:55;;;;;;;5.78;2.97;;;17.40;99.90;;;;;;4985061;28;20046;-87
2022/10/05 04:17:44;;;;;;;5.78;3.22;;;17.40;99.90;;;;;;4982885;28;20314;-90
2022/10/05 04:20:19;;;;;;;9.48;3.33;;;17.30;99.90;;;;;;4967067;28;20105;-87
2022/10/05 04:22:52;;;;;;;9.52;3.17;;;17.30;99.90;;;;;;4984800;28;20023;-88
2022/10/05 04:25:29;;;;;;;9.93;3.50;;;17.30;99.90;;;;;;4985518;28;20049;-88
2022/10/05 04:28:04;;;;;;;10.93;4.30;;;17.20;99.90;;;;;;4985204;28;20322;-88
2022/10/05 04:30:31;;;;;;;;;;;17.10;99.90;;;;;;4985799;28;20082;-88
2022/10/05 04:32:59;;;;;;;9.60;3.63;;;17.10;99.90;;;;;;4985221;28;19902;-88
2022/10/05 04:35:43;;;;;;;7.90;3.83;;;17.10;99.90;;;;;;4985190;28;20333;-88
2022/10/05 04:38:47;;;;;;;6.25;3.53;;;17.10;99.90;;;;;;4985178;28;20014;-87
2022/10/05 04:41:24;;;;;;;7.35;3.03;;;17.00;99.90;;;;;;4983373;28;20042;-88
2022/10/05 04:44:21;;;;;;;10.23;3.63;;;17.00;99.90;;;;;;4966642;28;20027;-87
2022/10/05 04:47:08;;;;;;;7.07;3.38;;;16.90;99.90;;;;;;4984960;28;20093;-89
2022/10/05 04:50:01;;;;;;;7.57;3.38;;;16.90;99.90;;;;;;4978284;28;20055;-88
2022/10/05 04:52:46;;;;;;;9.82;3.42;;;16.90;99.90;;;;;;4979605;28;20070;-90
2022/10/05 04:55:41;;;;;;;7.82;3.00;;;16.90;99.90;;;;;;4975221;28;20027;-90
2022/10/05 04:58:42;;;;;;;9.15;3.35;;;16.80;99.90;;;;;;4955029;28;20037;-88
2022/10/05 05:01:22;;;;;;;13.32;4.00;;;16.80;99.90;;;;;;4948915;28;20055;-88
2022/10/05 05:04:02;;;;;;;7.60;4.00;;;16.90;99.90;;;;;;4984605;28;20066;-87
2022/10/05 05:06:49;;;;;;;6.78;2.85;;;17.00;99.90;;;;;;4984628;28;20042;-87
2022/10/05 05:09:30;;;;;;;7.63;3.10;;;17.00;99.90;;;;;;4982285;28;20022;-88
2022/10/05 05:12:27;;;;;;;7.75;3.00;;;17.10;99.90;;;;;;4959786;28;20279;-88
2022/10/05 05:15:27;;;;;;;6.47;3.20;;;17.10;99.90;;;;;;4959799;28;20046;-81
2022/10/05 05:18:29;;;;;;;10.13;2.67;;;17.10;99.90;;;;;;4975278;28;20042;-81
2022/10/05 05:21:16;;;;;;;6.20;2.65;;;17.10;99.90;;;;;;4976143;28;20101;-81
2022/10/05 05:24:04;;;;;;;8.05;2.75;;;17.10;99.90;;;;;;4977723;28;20053;-82
2022/10/05 05:26:55;;;;;;;10.95;3.47;;;17.10;99.90;;;;;;4982430;28;20427;-82
2022/10/05 05:29:42;;;;;;;7.90;3.17;;;17.00;99.90;;;;;;4962540;28;20042;-81
2022/10/05 05:32:26;;;;;;;7.45;2.80;;;17.00;99.90;;;;;;4983360;28;20033;-81
2022/10/05 05:34:55;;;;;;;6.97;3.50;;;17.00;99.90;;;;;;4982558;28;20061;-81
2022/10/05 05:37:50;;;;;;;8.02;4.82;;;16.90;99.90;;;;;;4982935;28;20081;-81
2022/10/05 05:40:30;;;;;;;11.85;4.95;;;16.80;99.90;;;;;;4979043;28;20019;-81
2022/10/05 05:43:21;;;;;;;10.40;5.53;;;16.80;99.90;;;;;;4978620;28;20026;-81
2022/10/05 05:46:02;;;;;;;12.25;5.85;;;16.70;99.90;;;;;;4973012;28;20020;-81
2022/10/05 05:48:38;;;;;;;9.05;5.97;;;16.60;99.90;;;;;;4978761;28;20113;-81
2022/10/05 05:51:34;;;;;;;8.27;5.93;;;16.60;99.90;;;;;;4980868;28;20031;-82
2022/10/05 05:54:14;;;;;;;9.88;5.60;;;16.60;99.90;;;;;;4978467;28;20062;-81
2022/10/05 05:57:20;;;;;;;7.65;6.38;;;16.50;99.90;;;;;;4974862;28;20383;-81
2022/10/05 06:00:04;;;;;;;7.88;5.53;;;16.50;99.90;;;;;;4968250;28;20046;-81
2022/10/05 06:03:00;;;;;;;10.00;6.20;;;16.40;99.90;;;;;;4975610;28;20042;-81
2022/10/05 06:06:09;;;;;;;10.40;6.18;;;16.40;99.90;;;;;;4971922;28;20035;-81
2022/10/05 06:08:51;;;;;;;9.48;6.78;;;16.30;99.90;;;;;;4947392;28;20416;-82
2022/10/05 06:11:22;;;;;;;11.30;6.63;;;16.30;99.90;;;;;;4949734;29;20100;-81
2022/10/05 06:13:49;;;;;;;10.30;6.72;;;16.40;99.90;;;;;;4965203;28;20609;-81
2022/10/05 06:16:36;;;;;;;8.38;5.72;;;16.40;99.90;;;;;;4980497;28;20031;-81
2022/10/05 06:19:10;;;;;;;9.02;6.40;;;16.40;99.90;;;;;;4982156;28;20019;-81
2022/10/05 06:22:04;;;;;;;10.98;6.05;;;16.40;99.90;;;;;;4976721;28;20346;-81
2022/10/05 06:25:15;;;;;;;10.18;6.85;;;16.40;99.90;;;;;;4981652;28;20034;-82
2022/10/05 06:28:02;;;;;;;10.75;6.20;;;16.50;99.90;;;;;;4981913;28;20026;-82
2022/10/05 06:30:50;;;;;;;9.48;6.45;;;16.60;99.90;;;;;;4977653;28;20030;-81
2022/10/05 06:33:27;;;;;;;8.70;5.88;;;16.70;99.90;;;;;;4966202;28;20039;-82
2022/10/05 06:36:14;;;;;;;8.73;5.85;;;16.70;99.90;;;;;;4974013;28;20023;-82
2022/10/05 06:38:58;;;;;;;8.25;5.70;;;16.70;99.90;;;;;;4972918;28;20023;-81
2022/10/05 06:41:23;;;;;;;8.02;5.20;;;16.70;99.90;;;;;;4969135;28;20033;-81
2022/10/05 06:43:58;;;;;;;7.57;5.68;;;16.70;99.90;;;;;;4971578;28;20027;-86
2022/10/05 06:46:56;;;;;;;8.27;5.32;;;16.80;99.90;;;;;;4970672;28;20038;-81
2022/10/05 06:49:47;;;;;;;9.23;4.00;;;16.90;99.90;;;;;;4968014;28;20034;-81
2022/10/05 06:52:30;;;;;;;21.20;5.57;;;17.00;99.90;;;;;;4966276;28;20054;-80
2022/10/05 06:55:16;;;;;;;6.93;3.35;;;17.10;99.90;;;;;;4970960;28;20563;-85
2022/10/05 06:58:00;;;;;;;7.95;3.70;;;17.30;99.90;;;;;;4969728;28;20026;-88
2022/10/05 07:00:51;;;;;;;7.05;3.45;;;17.30;99.90;;;;;;4962724;28;20107;-92
2022/10/05 07:03:40;;;;;;;5.30;3.20;;;17.50;99.90;;;;;;4954562;28;20034;-89
2022/10/05 07:06:23;;;;;;;10.30;3.63;;;17.60;99.90;;;;;;4961660;28;20479;-92
2022/10/05 07:09:15;;;;;;;12.20;3.20;;;17.60;99.90;;;;;;4975861;28;20066;-93
2022/10/05 07:11:52;;;;;;;12.93;3.10;;;17.60;99.90;;;;;;4955585;29;20392;-90
2022/10/05 07:14:27;;;;;;;9.43;2.83;;;17.60;99.90;;;;;;4973684;28;20279;-89
2022/10/05 07:17:14;;;;;;;16.92;3.30;;;17.70;99.90;;;;;;4953180;28;20460;-91
2022/10/05 07:19:59;;;;;;;8.15;3.20;;;17.80;99.90;;;;;;4959990;28;20027;-92
2022/10/05 07:22:43;;;;;;;9.73;2.53;;;17.90;99.90;;;;;;4975887;28;20037;-93
2022/10/05 07:25:20;;;;;;;7.60;2.63;;;18.00;99.90;;;;;;4971492;28;20022;-95
2022/10/05 07:28:02;;;;;;;11.05;3.10;;;18.00;99.90;;;;;;4959018;28;20045;-93
2022/10/05 07:30:33;;;;;;;5.82;2.58;;;18.00;99.90;;;;;;4974436;28;20027;-94
2022/10/05 07:32:59;;;;;;;8.70;3.03;;;18.10;99.90;;;;;;4974202;28;20026;-93
2022/10/05 07:38:57;;;;;;;28.85;4.78;;;18.10;99.90;;;;;;4975901;28;20046;-94
2022/10/05 07:41:40;;;;;;;7.18;2.75;;;18.20;99.90;;;;;;4943561;28;20039;-94
2022/10/05 07:44:11;;;;;;;4.63;2.30;;;18.20;99.90;;;;;;4975425;28;20071;-95
2022/10/05 07:46:52;;;;;;;8.05;2.40;;;18.30;99.90;;;;;;4973959;28;20121;-94
2022/10/05 07:49:31;;;;;;;5.35;2.20;;;18.30;99.90;;;;;;4974073;28;20038;-93
2022/10/05 07:52:11;;;;;;;6.32;2.28;;;18.30;99.90;;;;;;4975197;28;20034;-93
2022/10/05 07:54:46;;;;;;;8.95;2.70;;;18.30;99.90;;;;;;4974376;28;20051;-94
2022/10/05 07:57:37;;;;;;;7.38;2.63;;;18.30;99.90;;;;;;4953408;28;20282;-94
2022/10/05 08:00:15;;;;;;;6.97;2.83;;;18.40;99.90;;;;;;4965240;28;20495;-95
2022/10/05 08:03:08;;;;;;;9.27;2.63;;;18.40;99.90;;;;;;4973959;28;20022;-94
2022/10/05 08:05:39;;;;;;;6.63;2.40;;;18.40;99.90;;;;;;4953603;28;20126;-93
2022/10/05 08:08:24;;;;;;;8.32;2.30;;;18.40;99.90;;;;;;4973948;28;20114;-94
2022/10/05 08:11:17;;;;;;;5.38;2.65;;;18.50;99.90;;;;;;4973962;28;20042;-93
2022/10/05 08:13:59;;;;;;;3.90;2.42;;;18.50;99.90;;;;;;4955017;28;20043;-93
2022/10/05 08:16:29;;;;;;;5.18;2.58;;;18.40;99.90;;;;;;4973728;28;20023;-92
2022/10/05 08:19:20;;;;;;;6.93;2.30;;;18.40;99.90;;;;;;4974294;28;20130;-93
2022/10/05 08:22:07;;;;;;;4.85;2.28;;;18.50;99.90;;;;;;4973441;28;20049;-93
2022/10/05 08:25:00;;;;;;;7.53;2.40;;;18.60;99.90;;;;;;4973636;28;20030;-92
2022/10/05 08:27:45;;;;;;;5.40;2.30;;;18.60;99.90;;;;;;4968947;28;20023;-94
2022/10/05 08:30:14;;;;;;;8.45;2.50;;;18.60;99.90;;;;;;4973413;28;20093;-93
2022/10/05 08:32:44;;;;;;;7.55;2.40;;;18.70;99.90;;;;;;4973264;28;20030;-93
2022/10/05 08:35:24;;;;;;;9.35;2.05;;;18.70;99.90;;;;;;4973320;28;20046;-94
2022/10/05 08:37:51;;;;;;;10.52;2.30;;;18.80;99.90;;;;;;4973105;28;20045;-93
2022/10/05 08:40:29;;;;;;;10.05;2.47;;;18.90;99.90;;;;;;4973398;28;20488;-93
2022/10/05 08:43:33;;;;;;;20.38;3.50;;;19.00;99.90;;;;;;4957085;28;20227;-93
2022/10/05 08:46:31;;;;;;;11.30;3.45;;;19.00;99.90;;;;;;4957220;28;20023;-94
2022/10/05 08:49:19;;;;;;;11.20;2.88;;;19.20;99.90;;;;;;4972964;28;20023;-94
2022/10/05 08:51:54;;;;;;;7.65;2.60;;;19.20;99.90;;;;;;4954726;28;20031;-94
2022/10/05 08:54:51;;;;;;;4.30;2.45;;;19.10;99.90;;;;;;4973468;28;20435;-92
2022/10/05 08:57:41;;;;;;;7.20;2.35;;;19.10;99.90;;;;;;4956337;28;20026;-94
2022/10/05 09:00:24;;;;;;;10.32;2.25;;;19.20;99.90;;;;;;4972273;28;20034;-93
2022/10/05 09:03:13;;;;;;;8.07;2.00;;;19.30;99.90;;;;;;4973125;28;20039;-94
2022/10/05 09:06:06;;;;;;;8.18;2.00;;;19.20;99.90;;;;;;4973097;28;20035;-94
2022/10/05 09:09:02;;;;;;;5.82;2.50;;;19.20;99.90;;;;;;4956934;28;20031;-94
2022/10/05 09:11:39;;;;;;;6.13;2.15;;;19.30;99.90;;;;;;4956515;28;20023;-94
2022/10/05 09:14:17;;;;;;;6.40;2.17;;;19.30;99.90;;;;;;4972651;28;20035;-92
2022/10/05 09:16:50;;;;;;;6.38;2.80;;;19.30;99.90;;;;;;4966728;28;20034;-93
2022/10/05 09:19:52;;;;;;;7.05;2.60;;;19.30;99.90;;;;;;4973051;28;20034;-93
2022/10/05 09:22:38;;;;;;;7.45;2.50;;;19.20;99.90;;;;;;4971461;28;20029;-91
2022/10/05 09:25:30;;;;;;;8.43;2.80;;;19.40;99.90;;;;;;4972446;28;20030;-91
2022/10/05 09:28:36;;;;;;;7.03;2.10;;;19.40;99.90;;;;;;4971948;28;20022;-92
2022/10/05 09:31:40;;;;;;;6.60;2.22;;;19.40;99.90;;;;;;4972754;28;20089;-92
2022/10/05 09:34:36;;;;;;;5.32;2.47;;;19.40;99.90;;;;;;4950699;28;20035;-91
2022/10/05 09:37:46;;;;;;;7.50;2.00;;;19.50;99.90;;;;;;4956222;28;20030;-93
2022/10/05 09:40:50;;;;;;;;;;;;;;;;;;;;;
2022/10/05 09:43:41;;;;;;;;;;;;;;;;;;;;;
2022/10/05 09:46:29;;;;;;;10.65;2.60;;;19.60;99.90;;;;;;4971120;28;20038;-93
2022/10/05 09:49:35;;;;;;;6.28;2.25;;;19.60;99.90;;;;;;4953989;28;20027;-90
2022/10/05 09:52:25;;;;;;;6.05;2.45;;;19.70;99.90;;;;;;4972032;28;20035;-92
2022/10/05 09:55:04;;;;;;;10.15;2.75;;;19.70;99.90;;;;;;4956376;28;20082;-93
2022/10/05 09:58:27;;;;;;;4.25;2.25;;;19.70;99.90;;;;;;4956213;28;20502;-91
2022/10/05 10:01:25;;;;;;;8.82;2.38;;;19.80;99.90;;;;;;4972473;28;20027;-92
2022/10/05 10:04:12;;;;;;;9.88;3.08;;;19.80;99.90;;;;;;4967668;28;20030;-91
2022/10/05 10:06:41;;;;;;;10.73;3.22;;;19.70;99.90;;;;;;4970398;28;20054;-92
2022/10/05 10:09:47;;;;;;;11.43;2.78;;;19.90;99.90;;;;;;4952728;28;20121;-93
2022/10/05 10:12:34;;;;;;;8.73;2.55;;;20.10;99.90;;;;;;4968756;28;20522;-93
2022/10/05 10:15:15;;;;;;;7.22;2.92;;;20.00;99.90;;;;;;4984062;28;20077;-92
2022/10/05 10:17:58;;;;;;;7.25;3.03;;;19.90;99.90;;;;;;4956397;28;20114;-92
2022/10/05 10:21:11;;;;;;;8.77;2.80;;;19.80;99.90;;;;;;4960830;28;20038;-82
2022/10/05 10:24:21;;;;;;;8.25;2.90;;;19.90;99.90;;;;;;4936521;28;20050;-82
2022/10/05 10:27:26;;;;;;;4.88;2.80;;;20.00;99.90;;;;;;4970952;28;20022;-82
2022/10/05 10:30:07;;;;;;;;;;;20.20;99.90;;;;;;4971556;28;20019;-82
2022/10/05 10:33:02;;;;;;;4.95;2.88;;;20.10;99.90;;;;;;4966883;28;19905;-82
2022/10/05 10:35:37;;;;;;;6.47;2.60;;;20.00;99.90;;;;;;4972146;28;20111;-82
2022/10/05 10:38:23;;;;;;;6.30;2.63;;;20.10;99.90;;;;;;4971481;28;20285;-83
2022/10/05 10:41:07;;;;;;;5.75;2.28;;;20.20;99.90;;;;;;4971132;28;20101;-82
2022/10/05 10:44:09;;;;;;;5.00;2.50;;;20.40;99.90;;;;;;4951414;28;20035;-82
2022/10/05 10:47:03;;;;;;;7.72;2.88;;;20.50;99.90;;;;;;4966504;28;20050;-82
2022/10/05 10:49:51;;;;;;;5.35;2.33;;;20.40;99.90;;;;;;4970715;28;20031;-83
2022/10/05 10:52:31;;;;;;;8.40;3.20;;;20.40;99.90;;;;;;4966064;28;20395;-83
2022/10/05 10:55:22;;;;;;;6.22;2.63;;;20.60;99.90;;;;;;4969879;28;20496;-83
2022/10/05 10:58:00;;;;;;;9.55;3.08;;;20.50;99.90;;;;;;4969429;28;20150;-83
2022/10/05 11:00:53;;;;;;;5.68;2.72;;;20.30;99.90;;;;;;4968980;28;20034;-83
2022/10/05 11:03:49;;;;;;;4.75;2.47;;;20.50;99.90;;;;;;4969132;28;20450;-82
2022/10/05 11:06:31;;;;;;;6.57;2.47;;;20.30;99.90;;;;;;4968805;28;20037;-83
2022/10/05 11:09:08;;;;;;;5.18;2.30;;;20.30;99.90;;;;;;4968953;28;20113;-83
2022/10/05 11:11:49;;;;;;;6.05;2.47;;;20.10;99.90;;;;;;4969347;28;20015;-82
2022/10/05 11:14:34;;;;;;;5.95;2.50;;;20.00;99.90;;;;;;4970748;28;20508;-83
2022/10/05 11:17:12;;;;;;;6.32;2.50;;;20.20;99.90;;;;;;4948577;28;20037;-83
2022/10/05 11:19:44;;;;;;;7.43;2.40;;;20.20;99.90;;;;;;4970822;28;20034;-83
2022/10/05 11:22:38;;;;;;;4.95;2.17;;;20.30;99.90;;;;;;4970733;28;20396;-82
2022/10/05 11:25:26;;;;;;;6.45;3.08;;;20.30;99.90;;;;;;4962963;28;20058;-83
2022/10/05 11:28:21;;;;;;;7.55;2.53;;;20.30;99.90;;;;;;4970614;28;20054;-83
2022/10/05 11:31:10;;;;;;;;;;;20.10;99.90;;;;;;4965019;28;20023;-83
2022/10/05 11:34:14;;;;;;;4.57;2.20;;;20.20;99.90;;;;;;4936455;28;19925;-83
2022/10/05 11:36:58;;;;;;;11.30;2.80;;;20.20;99.90;;;;;;4970401;28;20069;-83
2022/10/05 11:39:32;;;;;;;6.47;2.72;;;20.30;99.90;;;;;;4970670;28;20410;-83
2022/10/05 11:42:12;;;;;;;7.10;3.00;;;20.30;99.90;;;;;;4952653;28;20031;-83
2022/10/05 11:44:56;;;;;;;6.85;2.97;;;20.30;99.90;;;;;;4970522;28;20100;-83
2022/10/05 11:47:27;;;;;;;10.77;2.50;;;20.20;99.90;;;;;;4952970;28;20110;-83
2022/10/05 11:50:31;;;;;;;8.38;2.80;;;20.30;99.90;;;;;;4970414;28;20126;-83
2022/10/05 11:53:04;;;;;;;7.38;2.20;;;20.30;99.90;;;;;;4970559;28;20418;-83
2022/10/05 11:56:00;;;;;;;3.95;1.90;;;20.40;99.90;;;;;;4970303;28;20026;-84
2022/10/05 11:58:35;;;;;;;6.07;2.45;;;20.50;99.90;;;;;;4970223;28;20034;-84
2022/10/05 12:01:13;;;;;;;8.15;2.42;;;20.70;99.90;;;;;;4970750;28;20023;-84
2022/10/05 12:04:00;;;;;;;8.15;2.40;;;20.60;99.90;;;;;;4971168;28;20499;-83
2022/10/05 12:06:31;;;;;;;5.15;2.35;;;20.70;99.90;;;;;;4971984;28;20081;-83
2022/10/05 12:09:24;;;;;;;12.25;3.00;;;21.00;99.90;;;;;;4974488;28;20560;-83
2022/10/05 12:11:52;;;;;;;6.88;2.72;;;20.90;99.90;;;;;;4974314;28;20034;-83
2022/10/05 12:14:49;;;;;;;5.72;2.30;;;21.10;99.90;;;;;;4974279;28;20039;-83
2022/10/05 12:17:17;;;;;;;7.50;2.38;;;21.10;99.90;;;;;;4971598;28;20030;-83
2022/10/05 12:19:54;;;;;;;5.38;1.75;;;21.00;99.90;;;;;;4984718;28;20447;-83
2022/10/05 12:22:21;;;;;;;4.82;1.88;;;21.00;99.90;;;;;;4974803;28;20387;-83
2022/10/05 12:25:02;;;;;;;4.82;1.98;;;20.80;99.90;;;;;;4972078;28;20023;-84
2022/10/05 12:27:46;;;;;;;7.07;2.35;;;20.90;99.90;;;;;;4972465;28;20112;-83
2022/10/05 12:30:33;;;;;;;5.93;1.70;;;21.00;99.90;;;;;;4973739;28;20023;-83
2022/10/05 12:32:59;;;;;;;7.35;1.65;;;21.30;99.90;;;;;;4972045;28;20391;-83
2022/10/05 12:35:24;;;;;;;4.22;1.52;;;21.60;99.90;;;;;;4973837;28;20028;-83
2022/10/05 12:38:29;;;;;;;5.70;1.70;;;21.70;99.90;;;;;;4973821;28;20570;-83
2022/10/05 12:41:13;;;;;;;8.52;2.08;;;22.00;99.90;;;;;;4969542;28;20490;-83
2022/10/05 12:44:17;;;;;;;7.32;1.75;;;21.90;99.90;;;;;;4973372;28;20106;-83
2022/10/05 12:47:04;;;;;;;4.78;1.65;;;21.70;99.90;;;;;;4973474;28;20054;-83
2022/10/05 12:50:09;;;;;;;7.35;2.10;;;21.90;99.90;;;;;;4972071;28;20174;-83
2022/10/05 12:52:42;;;;;;;3.85;1.80;;;22.10;99.90;;;;;;4969822;28;20054;-83
2022/10/05 12:55:16;;;;;;;4.90;1.92;;;22.20;99.90;;;;;;4973323;28;20182;-83
2022/10/05 12:58:01;;;;;;;8.60;2.17;;;22.00;99.90;;;;;;4973111;28;20034;-83
2022/10/05 13:00:28;;;;;;;6.38;2.33;;;22.10;99.90;;;;;;4971890;28;20078;-83
2022/10/05 13:03:15;;;;;;;8.63;2.58;;;21.80;99.90;;;;;;4972123;28;20022;-83
2022/10/05 13:05:58;;;;;;;6.88;2.03;;;21.50;99.90;;;;;;4969390;28;20077;-84
2022/10/05 13:08:27;;;;;;;5.03;2.10;;;21.30;99.90;;;;;;4972996;28;20031;-84
2022/10/05 13:11:10;;;;;;;5.25;2.20;;;21.70;99.90;;;;;;4972336;28;20018;-83
2022/10/05 13:13:51;;;;;;;7.60;2.97;;;22.00;99.90;;;;;;4966631;28;20074;-83
2022/10/05 13:16:37;;;;;;;6.88;3.05;;;21.60;99.90;;;;;;4970095;28;20015;-83
2022/10/05 13:19:17;;;;;;;8.50;3.25;;;21.50;99.90;;;;;;4972053;28;20153;-83
2022/10/05 13:22:06;;;;;;;6.65;2.42;;;21.50;99.90;;;;;;4972587;28;20113;-83
2022/10/05 13:24:47;;;;;;;7.57;2.70;;;21.60;99.90;;;;;;4972435;28;20493;-83
2022/10/05 13:27:26;;;;;;;8.50;2.35;;;21.40;99.90;;;;;;4972811;28;20050;-83
2022/10/05 13:30:10;;;;;;;8.35;3.42;;;21.10;99.90;;;;;;4972049;28;20158;-84
2022/10/05 13:32:52;;;;;;;7.22;2.50;;;21.20;99.90;;;;;;4967036;28;20145;-83
2022/10/05 13:35:27;;;;;;;12.05;2.80;;;21.20;99.90;;;;;;4970264;28;20184;-84
2022/10/05 13:38:12;;;;;;;9.02;3.10;;;21.50;99.90;;;;;;4972264;28;20055;-84
2022/10/05 13:40:56;;;;;;;;;;;21.50;99.90;;;;;;4972945;28;20030;-83
2022/10/05 13:43:42;;;;;;;5.80;3.25;;;21.60;99.90;;;;;;4971961;28;19906;-84
2022/10/05 13:46:11;;;;;;;11.10;3.67;;;21.50;99.90;;;;;;4971946;28;20025;-83
2022/10/05 13:48:45;;;;;;;5.82;3.10;;;21.60;99.90;;;;;;4954219;28;20037;-83
2022/10/05 13:51:17;;;;;;;9.25;3.60;;;21.70;99.90;;;;;;4972147;28;20023;-83
2022/10/05 13:53:59;;;;;;;6.20;3.60;;;22.10;99.90;;;;;;4953783;28;20133;-84
2022/10/05 13:56:30;;;;;;;7.63;3.60;;;22.00;99.90;;;;;;4964994;28;20034;-84
2022/10/05 13:59:26;;;;;;;7.53;3.88;;;22.20;99.90;;;;;;4971976;28;20038;-83
2022/10/05 14:02:01;;;;;;;9.48;4.18;;;22.00;99.90;;;;;;4970308;28;20110;-84
2022/10/05 14:04:59;;;;;;;10.13;4.40;;;22.10;99.90;;;;;;4972276;28;20149;-83
2022/10/05 14:07:36;;;;;;;6.47;4.00;;;22.20;99.90;;;;;;4968522;28;20089;-84
2022/10/05 14:10:10;;;;;;;6.93;4.00;;;22.30;99.90;;;;;;4971811;28;20023;-83
2022/10/05 14:12:40;;;;;;;9.85;3.85;;;22.20;99.90;;;;;;4970013;28;20034;-84
2022/10/05 14:15:26;;;;;;;8.25;4.20;;;22.20;99.90;;;;;;4970585;28;20073;-84